Time;durP1;ratioP1;P1;durP2;ratioP2;P2;SDS_P1;SDS_P2;PMS_P1;PMS_P2;Temp;Humidity;BMP_temperature;BMP_pressure;BME280_temperature;BME280_humidity;BME280_pressure;Samples;Min_cycle;Max_cycle;Signal;HPM_P1;HPM_P2
2023/04/18 00:01:21;;;;;;;6.40;3.67;;;;;;;10.89;79.26;93379.25;5064835;28;20016;-76
2023/04/18 00:03:49;;;;;;;6.20;4.20;;;;;;;10.91;78.06;93372.50;5064645;28;20031;-76
2023/04/18 00:06:15;;;;;;;6.47;4.28;;;;;;;10.93;78.10;93375.63;5063480;28;20263;-76
2023/04/18 00:08:40;;;;;;;7.18;4.60;;;;;;;10.94;78.76;93376.38;5064632;28;20050;-76
2023/04/18 00:11:05;;;;;;;8.57;4.43;;;;;;;10.97;79.42;93373.06;5064529;28;20314;-76
2023/04/18 00:13:31;;;;;;;11.40;5.65;;;;;;;10.95;79.84;93373.41;5064702;28;20029;-76
2023/04/18 00:15:57;;;;;;;9.02;5.82;;;;;;;10.98;80.27;93371.97;5064512;28;20024;-76
2023/04/18 00:18:25;;;;;;;7.93;5.40;;;;;;;10.99;80.44;93376.16;5063373;28;20025;-76
2023/04/18 00:20:51;;;;;;;8.35;5.70;;;;;;;10.98;80.78;93375.41;5064294;28;20039;-76
2023/04/18 00:23:17;;;;;;;8.68;5.50;;;;;;;10.98;80.91;93377.28;5064329;28;20033;-76
2023/04/18 00:25:43;;;;;;;11.57;5.80;;;;;;;10.97;80.66;93376.53;5064233;28;20024;-77
2023/04/18 00:28:08;;;;;;;8.32;5.93;;;;;;;10.96;80.61;93377.63;5064370;28;20314;-76
2023/04/18 00:30:34;;;;;;;13.25;7.07;;;;;;;10.93;80.59;93380.94;5064462;28;20017;-77
2023/04/18 00:33:00;;;;;;;8.60;5.82;;;;;;;10.96;80.61;93374.94;5064218;28;20211;-77
2023/04/18 00:35:25;;;;;;;11.82;5.72;;;;;;;10.94;80.90;93369.16;5064205;28;20025;-77
2023/04/18 00:37:51;;;;;;;9.23;5.78;;;;;;;10.95;81.13;93378.75;5063939;28;20035;-77
2023/04/18 00:40:16;;;;;;;9.88;5.55;;;;;;;10.98;81.10;93372.72;5064065;28;20023;-77
2023/04/18 00:42:41;;;;;;;7.72;5.22;;;;;;;10.98;80.87;93364.72;5064222;28;20078;-77
2023/04/18 00:45:07;;;;;;;9.90;5.60;;;;;;;10.96;80.73;93364.28;5063343;28;20104;-77
2023/04/18 00:47:33;;;;;;;12.73;5.93;;;;;;;10.97;80.20;93365.84;5062692;28;20024;-77
2023/04/18 00:49:59;;;;;;;13.63;8.57;;;;;;;10.97;80.59;93363.19;5063973;28;20063;-76
2023/04/18 00:52:26;;;;;;;12.13;8.82;;;;;;;10.99;80.64;93362.84;5063786;28;20266;-77
2023/04/18 00:54:52;;;;;;;12.60;8.13;;;;;;;10.98;80.18;93361.28;5063699;28;20188;-77
2023/04/18 00:57:18;;;;;;;16.10;9.00;;;;;;;10.98;80.43;93350.63;5063835;28;20031;-77
2023/04/18 00:59:45;;;;;;;10.70;6.40;;;;;;;11.01;79.97;93355.28;5062282;28;20029;-76
2023/04/18 01:02:11;;;;;;;9.27;6.25;;;;;;;10.99;79.50;93352.97;5062057;28;20017;-77
2023/04/18 01:04:36;;;;;;;11.48;7.38;;;;;;;11.00;79.17;93346.53;5063750;28;20036;-77
2023/04/18 01:07:02;;;;;;;9.45;6.30;;;;;;;10.99;79.08;93354.84;5063492;28;20029;-76
2023/04/18 01:09:28;;;;;;;10.68;6.45;;;;;;;10.98;79.29;93346.06;5063657;28;20017;-76
2023/04/18 01:12:05;;;;;;;9.02;6.22;;;;;;;10.99;79.66;93347.66;5063124;28;20033;-76
2023/04/18 01:14:41;;;;;;;7.60;4.93;;;;;;;10.95;79.71;93340.59;5062224;28;20021;-77
2023/04/18 01:20:49;;;;;;;;;;;;;;;;;;;;;
2023/04/18 01:23:16;;;;;;;9.65;4.93;;;;;;;10.91;80.02;93351.16;5061820;28;20079;-77
2023/04/18 01:25:43;;;;;;;9.68;5.40;;;;;;;10.91;80.22;93345.03;5063278;28;20037;-76
2023/04/18 01:28:09;;;;;;;9.80;5.40;;;;;;;10.92;80.45;93357.28;5063285;28;20329;-76
2023/04/18 01:30:34;;;;;;;8.77;5.45;;;;;;;10.89;80.56;93348.03;5063608;28;20049;-76
2023/04/18 01:33:01;;;;;;;11.70;6.38;;;;;;;10.89;80.58;93352.56;5062956;28;20265;-77
2023/04/18 01:35:27;;;;;;;11.70;6.22;;;;;;;10.86;80.79;93348.69;5061986;28;20150;-76
2023/04/18 01:37:53;;;;;;;10.15;6.40;;;;;;;10.86;80.91;93346.03;5062820;28;20032;-76
2023/04/18 01:40:18;;;;;;;11.45;7.45;;;;;;;10.84;81.00;93337.56;5061662;28;20028;-77
2023/04/18 01:42:44;;;;;;;10.88;6.57;;;;;;;10.86;80.96;93345.25;5062990;28;20013;-76
2023/04/18 01:45:10;;;;;;;12.48;6.60;;;;;;;10.84;80.97;93337.56;5062900;28;20021;-76
2023/04/18 01:47:36;;;;;;;13.75;6.15;;;;;;;10.83;80.85;93344.03;5062922;28;20017;-77
2023/04/18 01:50:02;;;;;;;10.00;5.50;;;;;;;10.81;80.84;93341.69;5062933;28;20043;-76
2023/04/18 01:52:28;;;;;;;9.85;6.20;;;;;;;10.81;80.90;93340.91;5062762;28;20192;-76
2023/04/18 01:54:53;;;;;;;9.40;5.85;;;;;;;10.79;80.85;93349.22;5062632;28;20020;-76
2023/04/18 01:57:19;;;;;;;10.63;6.43;;;;;;;10.76;80.79;93335.75;5062662;28;20075;-76
2023/04/18 01:59:44;;;;;;;10.23;5.72;;;;;;;10.75;80.89;93334.97;5062652;28;20021;-76
2023/04/18 02:02:10;;;;;;;10.15;5.50;;;;;;;10.75;80.97;93331.53;5061205;28;20020;-75
2023/04/18 02:04:35;;;;;;;9.70;6.15;;;;;;;10.76;81.11;93335.75;5062873;28;20028;-76
2023/04/18 02:07:01;;;;;;;8.27;5.57;;;;;;;10.75;81.18;93337.66;5061362;28;20028;-76
2023/04/18 02:09:26;;;;;;;9.00;5.15;;;;;;;10.74;81.53;93340.63;5062549;28;20448;-76
2023/04/18 02:11:55;;;;;;;13.82;6.28;;;;;;;10.74;81.33;93336.06;5062434;28;20028;-76
2023/04/18 02:14:20;;;;;;;8.25;4.95;;;;;;;10.73;81.47;93344.41;5062709;28;20029;-76
2023/04/18 02:16:46;;;;;;;8.35;5.47;;;;;;;10.73;81.09;93342.53;5062721;28;20029;-76
2023/04/18 02:19:11;;;;;;;11.65;6.25;;;;;;;10.75;80.98;93342.22;5062217;28;20032;-76
2023/04/18 02:21:36;;;;;;;13.00;5.90;;;;;;;10.78;80.83;93350.31;5062750;28;20032;-77
2023/04/18 02:24:02;;;;;;;10.63;6.18;;;;;;;10.77;81.09;93350.66;5062671;28;20040;-76
2023/04/18 02:26:27;;;;;;;11.25;6.93;;;;;;;10.76;81.10;93341.09;5062658;28;20029;-76
2023/04/18 02:28:53;;;;;;;13.02;7.05;;;;;;;10.81;81.13;93343.56;5062616;28;20021;-77
2023/04/18 02:31:18;;;;;;;12.05;7.50;;;;;;;10.79;81.04;93351.88;5061541;28;20218;-76
2023/04/18 02:33:46;;;;;;;12.60;7.75;;;;;;;10.79;81.16;93348.44;5061382;28;20092;-77
2023/04/18 02:36:12;;;;;;;9.07;6.13;;;;;;;10.80;81.35;93356.09;5062231;28;20028;-76
2023/04/18 02:38:37;;;;;;;10.45;6.50;;;;;;;10.83;81.06;93357.34;5062598;28;20024;-76
2023/04/18 02:41:03;;;;;;;11.95;7.00;;;;;;;10.86;81.12;93353.25;5062422;28;20076;-76
2023/04/18 02:43:29;;;;;;;10.80;7.00;;;;;;;10.84;80.99;93350.91;5062459;28;20079;-76
2023/04/18 02:45:54;;;;;;;10.35;6.13;;;;;;;10.83;80.90;93349.34;5062297;28;20037;-76
2023/04/18 02:48:22;;;;;;;10.35;6.15;;;;;;;10.83;80.85;93349.34;5062509;28;20025;-76
2023/04/18 02:50:47;;;;;;;11.00;6.22;;;;;;;10.83;80.95;93346.69;5062151;28;20032;-76
2023/04/18 02:53:13;;;;;;;9.13;6.03;;;;;;;10.82;80.87;93347.78;5061114;28;20048;-76
2023/04/18 02:55:38;;;;;;;9.55;6.60;;;;;;;10.82;80.95;93347.78;5062401;28;20349;-76
2023/04/18 02:58:04;;;;;;;12.85;6.57;;;;;;;10.81;80.91;93354.22;5062317;28;20162;-77
2023/04/18 03:00:29;;;;;;;9.55;6.40;;;;;;;10.82;80.62;93348.56;5062388;28;20036;-77
2023/04/18 03:02:55;;;;;;;10.18;6.40;;;;;;;10.83;80.85;93349.34;5061867;28;20048;-76
2023/04/18 03:05:20;;;;;;;12.25;6.15;;;;;;;10.83;80.74;93354.69;5062269;28;20028;-76
2023/04/18 03:07:46;;;;;;;11.15;6.22;;;;;;;10.77;80.74;93342.66;5062081;28;20021;-76
2023/04/18 03:10:11;;;;;;;10.75;7.13;;;;;;;10.78;80.85;93352.19;5064969;28;20025;-76
2023/04/18 03:12:39;;;;;;;9.75;6.53;;;;;;;10.77;80.75;93356.00;5065951;28;20265;-76
2023/04/18 03:15:05;;;;;;;12.52;6.60;;;;;;;10.76;80.94;93355.19;5064619;28;20207;-76
2023/04/18 03:17:31;;;;;;;9.40;6.50;;;;;;;10.78;81.20;93362.88;5064592;28;20020;-75
2023/04/18 03:19:56;;;;;;;10.38;6.50;;;;;;;10.79;81.03;93364.44;5065569;28;20372;-76
2023/04/18 03:22:22;;;;;;;10.20;6.90;;;;;;;10.75;81.10;93374.97;5065365;28;20049;-76
2023/04/18 03:25:05;;;;;;;9.48;6.25;;;;;;;10.77;81.12;93378.09;5065305;28;20231;-76
2023/04/18 03:27:47;;;;;;;14.15;6.47;;;;;;;10.76;81.11;93375.75;5065257;28;20025;-76
2023/04/18 03:33:57;;;;;;;;;;;;;;;;;;;;;
2023/04/18 03:37:01;;;;;;;;;;;;;;;;;;;;;
2023/04/18 03:43:21;;;;;;;13.27;8.30;;;;;;;10.61;81.92;93374.44;5057638;28;20041;-76
2023/04/18 03:45:47;;;;;;;17.02;8.55;;;;;;;10.62;81.79;93378.66;5064698;28;20029;-76
2023/04/18 03:48:13;;;;;;;14.52;9.05;;;;;;;10.62;82.23;93376.00;5065175;28;20191;-76
2023/04/18 03:50:39;;;;;;;13.93;7.88;;;;;;;10.62;82.23;93378.66;5064690;28;20025;-76
2023/04/18 03:53:05;;;;;;;12.77;8.82;;;;;;;10.58;82.41;93383.06;5065198;28;20361;-76
2023/04/18 03:55:30;;;;;;;12.45;7.43;;;;;;;10.57;82.58;93382.31;5064931;28;20028;-77
2023/04/18 03:57:57;;;;;;;12.90;9.07;;;;;;;10.61;82.41;93385.09;5064797;28;20029;-76
2023/04/18 04:00:23;;;;;;;12.35;8.13;;;;;;;10.60;82.53;93379.00;5064749;28;20376;-75
2023/04/18 04:02:49;;;;;;;11.38;7.82;;;;;;;10.61;82.42;93390.44;5064720;28;20029;-76
2023/04/18 04:05:15;;;;;;;12.98;8.88;;;;;;;10.63;82.38;93380.22;5064717;28;20063;-76
2023/04/18 04:07:40;;;;;;;12.88;8.25;;;;;;;10.66;82.49;93394.78;5064652;28;20025;-76
2023/04/18 04:10:06;;;;;;;15.93;8.90;;;;;;;10.65;82.53;93391.34;5063792;28;20035;-76
2023/04/18 04:12:32;;;;;;;12.70;8.55;;;;;;;10.66;82.49;93394.78;5064377;28;20383;-76
2023/04/18 04:14:57;;;;;;;13.80;8.50;;;;;;;10.68;82.54;93396.03;5064431;28;20081;-76
2023/04/18 04:17:23;;;;;;;13.60;9.32;;;;;;;10.71;82.52;93394.59;5064364;28;20032;-76
2023/04/18 04:19:49;;;;;;;14.23;9.60;;;;;;;10.65;82.60;93386.03;5064395;28;20025;-75
2023/04/18 04:22:15;;;;;;;13.30;9.77;;;;;;;10.71;82.61;93390.06;5063120;28;20048;-77
2023/04/18 04:24:41;;;;;;;13.15;9.35;;;;;;;10.74;82.34;93396.59;5064318;28;20029;-76
2023/04/18 04:27:07;;;;;;;13.00;8.93;;;;;;;10.74;82.12;93392.06;5064583;28;20044;-76
2023/04/18 04:29:34;;;;;;;15.73;9.40;;;;;;;10.76;82.34;93397.06;5064196;28;20318;-76
2023/04/18 04:31:59;;;;;;;17.75;9.35;;;;;;;10.78;82.39;93405.53;5064051;28;20051;-76
2023/04/18 04:34:25;;;;;;;13.80;9.27;;;;;;;10.82;82.56;93401.09;5063849;28;20289;-76
2023/04/18 04:36:52;;;;;;;17.30;11.00;;;;;;;10.87;82.75;93400.91;5063733;28;20056;-76
2023/04/18 04:39:18;;;;;;;21.65;12.82;;;;;;;10.91;82.62;93409.81;5063775;28;20261;-76
2023/04/18 04:41:45;;;;;;;19.83;12.40;;;;;;;10.93;82.66;93404.94;5063726;28;20024;-75
2023/04/18 04:44:11;;;;;;;26.98;14.25;;;;;;;10.97;82.52;93405.06;5063729;28;20029;-75
2023/04/18 04:46:39;;;;;;;21.38;13.32;;;;;;;11.03;82.17;93409.09;5063830;28;20029;-76
2023/04/18 04:49:04;;;;;;;25.83;14.15;;;;;;;11.08;81.79;93408.13;5063865;28;20025;-75
2023/04/18 04:51:30;;;;;;;18.38;12.05;;;;;;;11.11;81.75;93407.47;5064030;28;20016;-74
2023/04/18 04:53:56;;;;;;;18.55;12.32;;;;;;;11.15;81.53;93405.69;5064090;28;20021;-75
2023/04/18 04:56:21;;;;;;;20.23;12.38;;;;;;;11.14;81.42;93412.94;5063777;28;20309;-75
2023/04/18 04:58:47;;;;;;;18.08;12.35;;;;;;;11.20;81.09;93410.84;5063638;28;20229;-75
2023/04/18 05:01:13;;;;;;;18.58;11.50;;;;;;;11.24;80.60;93420.53;5063802;28;20059;-76
2023/04/18 05:03:38;;;;;;;22.20;12.98;;;;;;;11.26;80.82;93417.53;5063515;28;20021;-76
2023/04/18 05:06:04;;;;;;;22.33;13.70;;;;;;;11.33;81.08;93409.00;5063677;28;20265;-76
2023/04/18 05:08:30;;;;;;;31.42;16.15;;;;;;;11.26;80.89;93419.44;5063491;28;20070;-75
2023/04/18 05:10:55;;;;;;;27.83;15.90;;;;;;;11.30;81.19;93417.66;5063306;28;20016;-78
2023/04/18 05:13:21;;;;;;;28.20;17.83;;;;;;;11.37;81.05;93424.00;5063813;28;20052;-81
2023/04/18 05:15:46;;;;;;;24.63;15.93;;;;;;;11.41;80.56;93427.59;5063740;28;20059;-81
2023/04/18 05:18:13;;;;;;;27.48;15.57;;;;;;;11.42;80.74;93439.06;5063887;28;20079;-81
2023/04/18 05:20:39;;;;;;;24.98;15.23;;;;;;;11.43;80.70;93429.94;5063657;28;20028;-81
2023/04/18 05:23:04;;;;;;;24.80;16.05;;;;;;;11.43;81.05;93433.38;5063860;28;20017;-81
2023/04/18 05:25:31;;;;;;;31.90;16.05;;;;;;;11.47;81.00;93433.50;5063473;28;20037;-81
2023/04/18 05:27:56;;;;;;;24.10;15.75;;;;;;;11.55;80.94;93427.31;5063513;28;20025;-81
2023/04/18 05:30:22;;;;;;;24.55;16.13;;;;;;;11.58;80.79;93423.19;5063363;28;20322;-81
2023/04/18 05:32:47;;;;;;;21.40;15.05;;;;;;;11.58;80.68;93426.66;5063194;28;20087;-81
2023/04/18 05:35:13;;;;;;;21.92;14.23;;;;;;;11.70;80.73;93425.88;5063385;28;20017;-81
2023/04/18 05:37:38;;;;;;;20.75;13.75;;;;;;;11.78;80.65;93432.25;5063268;28;20038;-81
2023/04/18 05:40:04;;;;;;;25.60;15.27;;;;;;;11.88;80.69;93423.03;5063594;28;20033;-81
2023/04/18 05:42:30;;;;;;;23.90;14.60;;;;;;;11.97;80.29;93427.22;5063037;28;20021;-81
2023/04/18 05:44:55;;;;;;;23.15;14.77;;;;;;;12.10;79.88;93430.66;5063263;28;20037;-81
2023/04/18 05:47:22;;;;;;;22.38;12.75;;;;;;;12.20;79.32;93435.56;5063151;28;20020;-81
2023/04/18 05:49:48;;;;;;;18.80;12.07;;;;;;;12.27;77.98;93435.00;5062197;28;20028;-81
2023/04/18 05:52:13;;;;;;;18.85;11.38;;;;;;;12.37;77.58;93437.25;5062775;28;20311;-81
2023/04/18 05:54:39;;;;;;;19.80;11.18;;;;;;;12.47;76.98;93433.34;5062879;28;20032;-81
2023/04/18 05:57:05;;;;;;;16.77;10.82;;;;;;;12.54;74.69;93441.59;5063028;28;20035;-81
2023/04/18 05:59:31;;;;;;;14.00;10.23;;;;;;;12.62;73.85;93435.38;5062781;28;20025;-81
2023/04/18 06:01:56;;;;;;;21.00;11.07;;;;;;;12.68;73.24;93440.47;5062873;28;20025;-81
2023/04/18 06:04:21;;;;;;;19.25;10.05;;;;;;;12.72;72.83;93441.34;5063280;28;20029;-81
2023/04/18 06:06:47;;;;;;;16.27;10.60;;;;;;;12.76;72.54;93445.72;5063009;28;20236;-81
2023/04/18 06:09:12;;;;;;;17.25;10.55;;;;;;;12.82;71.32;93444.38;5062961;28;20153;-81
2023/04/18 06:11:38;;;;;;;16.42;10.50;;;;;;;12.87;70.92;93438.00;5062888;28;20033;-81
2023/04/18 06:14:03;;;;;;;16.05;11.38;;;;;;;12.94;70.96;93442.78;5063165;28;20079;-81
2023/04/18 06:16:29;;;;;;;17.50;11.95;;;;;;;13.01;70.97;93445.66;5062972;28;20267;-81
2023/04/18 06:18:54;;;;;;;19.30;11.85;;;;;;;12.99;70.18;93440.66;5062764;28;20318;-80
2023/04/18 06:21:20;;;;;;;17.77;11.02;;;;;;;13.00;69.68;93434.16;5062352;28;20106;-81
2023/04/18 06:23:46;;;;;;;18.13;10.88;;;;;;;12.96;69.42;93440.53;5062249;28;20036;-81
2023/04/18 06:26:12;;;;;;;13.23;9.45;;;;;;;12.96;69.08;93437.88;5062350;28;20032;-82
2023/04/18 06:28:38;;;;;;;12.95;9.63;;;;;;;12.93;68.22;93444.69;5062320;28;20219;-82
2023/04/18 06:31:03;;;;;;;13.98;9.55;;;;;;;12.93;67.67;93436.66;5062199;28;20120;-81
2023/04/18 06:33:29;;;;;;;15.32;9.95;;;;;;;12.91;67.69;93440.78;5062317;28;20096;-81
2023/04/18 06:35:55;;;;;;;19.85;10.63;;;;;;;12.90;67.47;93434.63;5062131;28;20029;-81
2023/04/18 06:38:21;;;;;;;14.65;9.52;;;;;;;12.90;67.77;93429.28;5062065;28;20028;-81
2023/04/18 06:40:46;;;;;;;15.07;10.50;;;;;;;12.92;67.79;93437.75;5062047;28;20222;-81
2023/04/18 06:43:12;;;;;;;18.98;9.93;;;;;;;12.97;67.82;93445.56;5062050;28;20215;-81
2023/04/18 06:45:37;;;;;;;17.45;10.65;;;;;;;13.07;67.97;93443.50;5065797;28;20052;-81
2023/04/18 06:48:03;;;;;;;14.40;9.55;;;;;;;13.14;66.90;93433.03;5065851;28;20023;-82
2023/04/18 06:50:29;;;;;;;15.48;9.90;;;;;;;13.22;66.68;93440.91;5064756;28;20048;-81
2023/04/18 06:52:55;;;;;;;12.73;9.10;;;;;;;13.27;66.11;93445.28;5065969;28;20020;-81
2023/04/18 06:55:20;;;;;;;12.52;9.25;;;;;;;13.32;65.39;93437.00;5065843;28;20147;-81
2023/04/18 06:57:46;;;;;;;13.93;8.73;;;;;;;13.37;65.32;93444.81;5065892;28;20028;-81
2023/04/18 07:00:12;;;;;;;15.25;9.95;;;;;;;13.47;65.82;93445.44;5066060;28;20024;-81
2023/04/18 07:02:38;;;;;;;14.07;9.85;;;;;;;13.51;65.21;93443.63;5065860;28;20314;-82
2023/04/18 07:05:04;;;;;;;13.90;9.40;;;;;;;13.55;65.27;93441.84;5065902;28;20056;-81
2023/04/18 07:07:31;;;;;;;15.10;9.38;;;;;;;13.57;64.97;93444.94;5065502;28;20027;-81
2023/04/18 07:09:57;;;;;;;15.77;8.45;;;;;;;13.65;64.90;93452.06;5065689;28;20025;-81
2023/04/18 07:12:23;;;;;;;17.00;9.50;;;;;;;13.67;64.78;93451.72;5065396;28;20099;-81
2023/04/18 07:14:48;;;;;;;13.32;9.30;;;;;;;13.62;64.75;93447.41;5065517;28;20326;-81
2023/04/18 07:17:14;;;;;;;14.02;9.02;;;;;;;13.68;65.29;93447.91;5065835;28;20092;-81
2023/04/18 07:19:40;;;;;;;17.17;8.55;;;;;;;13.76;64.10;93447.78;5065370;28;20204;-81
2023/04/18 07:22:06;;;;;;;11.15;7.70;;;;;;;13.83;62.26;93447.19;5065543;28;20027;-81
2023/04/18 07:24:31;;;;;;;11.45;6.53;;;;;;;13.88;61.88;93446.13;5065537;28;20041;-82
2023/04/18 07:26:56;;;;;;;11.88;8.02;;;;;;;13.99;61.85;93447.97;5065324;28;20083;-82
2023/04/18 07:29:22;;;;;;;10.30;6.97;;;;;;;14.13;61.22;93460.19;5065235;28;20048;-82
2023/04/18 07:31:48;;;;;;;11.40;7.63;;;;;;;14.28;60.69;93454.03;5065409;28;20052;-82
2023/04/18 07:34:13;;;;;;;8.82;6.63;;;;;;;14.37;59.00;93453.88;5065038;28;20036;-82
2023/04/18 07:36:39;;;;;;;8.40;6.20;;;;;;;14.36;59.38;93447.72;5065316;28;20043;-82
2023/04/18 07:39:05;;;;;;;11.15;6.90;;;;;;;14.37;59.01;93445.81;5065220;28;20338;-82
2023/04/18 07:41:31;;;;;;;8.32;5.80;;;;;;;14.47;58.83;93452.56;5064962;28;20314;-82
2023/04/18 07:43:57;;;;;;;9.43;6.70;;;;;;;14.65;58.86;93459.16;5064892;28;20098;-82
2023/04/18 07:46:22;;;;;;;10.10;6.70;;;;;;;14.79;57.86;93456.03;5064959;28;20310;-82
2023/04/18 07:48:48;;;;;;;14.63;6.68;;;;;;;14.93;56.47;93447.53;5065047;28;20021;-82
2023/04/18 07:51:14;;;;;;;8.48;5.65;;;;;;;15.06;55.66;93457.00;5064778;28;20218;-82
2023/04/18 07:53:39;;;;;;;14.80;5.93;;;;;;;15.15;55.44;93459.50;5064918;28;20192;-82
2023/04/18 07:56:05;;;;;;;8.13;5.95;;;;;;;15.18;54.55;93456.91;5064585;28;20059;-82
2023/04/18 07:58:33;;;;;;;8.65;5.72;;;;;;;15.30;54.46;93455.97;5064590;28;20024;-82
2023/04/18 08:00:58;;;;;;;12.82;5.82;;;;;;;15.35;53.16;93469.13;5064607;28;20115;-82
2023/04/18 08:03:24;;;;;;;6.97;4.80;;;;;;;15.36;52.11;93461.84;5064521;28;20103;-82
2023/04/18 08:05:50;;;;;;;9.32;4.93;;;;;;;15.37;51.86;93466.88;5064585;28;20021;-82
2023/04/18 08:08:16;;;;;;;7.55;5.07;;;;;;;15.39;52.02;93463.84;5064737;28;20016;-82
2023/04/18 08:10:41;;;;;;;11.38;5.28;;;;;;;15.42;52.02;93461.22;5064539;28;20218;-82
2023/04/18 08:13:07;;;;;;;10.30;4.80;;;;;;;15.46;51.59;93463.97;5064522;28;20242;-82
2023/04/18 08:15:32;;;;;;;9.07;4.95;;;;;;;15.49;51.16;93475.91;5064521;28;20021;-82
2023/04/18 08:17:59;;;;;;;11.30;5.75;;;;;;;15.55;50.77;93474.50;5064217;28;20092;-82
2023/04/18 08:20:24;;;;;;;9.80;4.93;;;;;;;15.50;50.54;93464.06;5064257;28;20017;-82
2023/04/18 08:22:50;;;;;;;10.63;6.38;;;;;;;15.52;51.54;93472.53;5064625;28;20040;-82
2023/04/18 08:25:16;;;;;;;14.70;5.85;;;;;;;15.69;51.93;93474.78;5064058;28;20028;-82
2023/04/18 08:27:42;;;;;;;8.63;5.22;;;;;;;15.75;51.04;93470.72;5064046;28;20200;-81
2023/04/18 08:30:08;;;;;;;8.30;5.00;;;;;;;15.89;49.37;93474.81;5064366;28;20253;-82
2023/04/18 08:32:35;;;;;;;8.30;5.32;;;;;;;16.03;49.93;93477.75;5064132;28;20012;-82
2023/04/18 08:35:01;;;;;;;10.10;5.35;;;;;;;16.07;49.00;93478.59;5063985;28;20042;-82
2023/04/18 08:37:27;;;;;;;11.32;4.75;;;;;;;16.21;49.07;93480.78;5063937;28;20048;-82
2023/04/18 08:39:52;;;;;;;8.38;5.20;;;;;;;16.30;48.59;93477.84;5063861;28;20027;-81
2023/04/18 08:42:18;;;;;;;9.63;4.53;;;;;;;16.28;48.21;93480.09;5063853;28;20037;-81
2023/04/18 08:44:47;;;;;;;8.85;4.75;;;;;;;16.31;47.70;93474.03;5063721;28;20025;-81
2023/04/18 08:47:13;;;;;;;9.27;5.63;;;;;;;16.29;47.88;93466.31;5063869;28;20029;-82
2023/04/18 08:49:39;;;;;;;16.88;5.70;;;;;;;16.36;47.67;93471.03;5064056;28;20084;-82
2023/04/18 08:52:17;;;;;;;9.15;5.90;;;;;;;16.31;47.88;93468.66;5063963;28;20046;-82
2023/04/18 08:54:47;;;;;;;11.02;4.78;;;;;;;16.33;48.08;93471.75;5063696;28;20101;-82
2023/04/18 08:57:22;;;;;;;6.78;4.63;;;;;;;16.33;47.02;93472.53;5063573;28;20024;-82
2023/04/18 08:59:49;;;;;;;7.82;4.97;;;;;;;16.31;47.47;93474.03;5063511;28;20088;-82
2023/04/18 09:02:15;;;;;;;7.40;4.90;;;;;;;16.18;47.58;93466.13;5063383;28;20025;-82
2023/04/18 09:04:43;;;;;;;11.13;4.68;;;;;;;16.17;47.82;93469.94;5063891;28;20040;-82
2023/04/18 09:07:12;;;;;;;6.53;4.70;;;;;;;16.18;47.77;93465.34;5063134;28;20029;-81
2023/04/18 09:09:53;;;;;;;7.45;4.88;;;;;;;16.22;48.13;93474.25;5063441;28;20036;-82
2023/04/18 09:12:48;;;;;;;14.38;5.38;;;;;;;16.35;48.31;93466.81;5063369;28;20099;-82
2023/04/18 09:15:16;;;;;;;9.55;5.38;;;;;;;16.40;48.31;93467.25;5061420;28;20270;-82
2023/04/18 09:17:49;;;;;;;7.25;5.38;;;;;;;16.41;47.66;93471.50;5063276;28;20236;-82
2023/04/18 09:20:42;;;;;;;7.20;5.10;;;;;;;16.52;47.23;93463.59;5063179;28;20104;-82
2023/04/18 09:23:09;;;;;;;7.32;4.80;;;;;;;16.53;47.19;93465.19;5063328;28;20223;-82
2023/04/18 09:25:41;;;;;;;7.50;4.53;;;;;;;16.59;46.79;93465.66;5063342;28;20075;-82
2023/04/18 09:28:25;;;;;;;7.18;4.72;;;;;;;16.47;45.73;93460.47;5063361;28;20095;-82
2023/04/18 09:30:51;;;;;;;7.55;5.10;;;;;;;16.55;46.70;93467.50;5062905;28;20029;-82
2023/04/18 09:33:27;;;;;;;8.07;5.18;;;;;;;16.57;46.80;93470.63;5062846;28;20289;-82
2023/04/18 09:35:53;;;;;;;7.43;4.82;;;;;;;16.61;46.74;93468.75;5062891;28;20349;-82
2023/04/18 09:38:19;;;;;;;6.15;4.40;;;;;;;16.64;45.90;93466.09;5062971;28;20025;-82
2023/04/18 09:40:44;;;;;;;7.03;4.18;;;;;;;16.67;45.29;93463.84;5063001;28;20032;-82
2023/04/18 09:43:20;;;;;;;7.13;4.60;;;;;;;16.57;45.77;93466.00;5062791;28;20089;-82
2023/04/18 09:45:49;;;;;;;7.00;4.55;;;;;;;16.50;45.87;93457.03;5062710;28;20029;-82
2023/04/18 09:48:15;;;;;;;8.98;4.82;;;;;;;16.50;45.91;93457.81;5062858;28;20024;-82
2023/04/18 09:50:41;;;;;;;8.10;4.55;;;;;;;16.52;45.74;93462.84;5062760;28;20036;-81
2023/04/18 09:53:07;;;;;;;8.00;4.35;;;;;;;16.50;45.92;93460.50;5063028;28;20230;-82
2023/04/18 09:55:34;;;;;;;7.03;4.43;;;;;;;16.51;46.42;93462.06;5062626;28;20032;-82
2023/04/18 09:58:02;;;;;;;6.07;4.43;;;;;;;16.52;45.74;93452.06;5062719;28;20207;-82
2023/04/18 10:00:29;;;;;;;7.47;4.95;;;;;;;16.56;45.86;93453.69;5062634;28;20319;-82
2023/04/18 10:03:08;;;;;;;10.30;5.22;;;;;;;16.54;45.67;93450.56;5062623;28;20032;-82
2023/04/18 10:05:35;;;;;;;9.93;4.70;;;;;;;16.60;45.96;93461.81;5062848;28;20029;-81
2023/04/18 10:08:02;;;;;;;8.27;5.05;;;;;;;16.59;45.32;93458.34;5062498;28;20021;-81
2023/04/18 10:10:27;;;;;;;9.98;4.05;;;;;;;16.55;47.26;93456.75;5062335;28;20211;-81
2023/04/18 10:12:55;;;;;;;5.18;3.63;;;;;;;16.40;49.69;93456.50;5062025;28;20040;-81
2023/04/18 10:15:23;;;;;;;15.85;4.05;;;;;;;16.41;50.17;93463.44;5062788;28;20140;-82
2023/04/18 10:17:52;;;;;;;10.98;3.85;;;;;;;16.37;50.84;93457.22;5063517;28;20017;-82
2023/04/18 10:20:20;;;;;;;11.32;3.53;;;;;;;16.35;50.86;93458.72;5066771;28;20028;-81
2023/04/18 10:22:47;;;;;;;13.05;5.68;;;;;;;16.37;51.25;93459.16;5066658;28;20326;-81
2023/04/18 10:25:13;;;;;;;7.18;3.08;;;;;;;16.41;51.05;93447.31;5066471;28;20211;-81
2023/04/18 10:27:47;;;;;;;8.32;3.30;;;;;;;16.39;50.46;93454.19;5066453;28;20066;-81
2023/04/18 10:30:17;;;;;;;6.00;2.85;;;;;;;16.12;50.18;93451.44;5066488;28;20040;-81
2023/04/18 10:32:45;;;;;;;9.32;4.18;;;;;;;16.18;50.94;93450.00;5066409;28;20314;-82
2023/04/18 10:35:11;;;;;;;6.15;3.47;;;;;;;16.29;50.69;93449.41;5066358;28;20222;-81
2023/04/18 10:37:58;;;;;;;14.75;5.10;;;;;;;16.24;51.10;93443.19;5066265;28;20096;-82
2023/04/18 10:40:33;;;;;;;10.63;3.78;;;;;;;16.44;51.25;93451.97;5066224;28;20024;-82
2023/04/18 10:42:59;;;;;;;7.53;3.33;;;;;;;16.53;50.86;93442.88;5065887;28;20067;-81
2023/04/18 10:45:27;;;;;;;12.23;3.58;;;;;;;16.45;50.30;93447.38;5066140;28;20092;-82
2023/04/18 10:48:28;;;;;;;6.72;4.18;;;;;;;16.52;49.99;93442.09;5064861;28;20315;-82
2023/04/18 10:51:11;;;;;;;8.77;3.13;;;;;;;16.64;49.12;93439.19;5066163;28;20029;-81
2023/04/18 10:53:36;;;;;;;7.95;3.05;;;;;;;16.62;48.97;93433.41;5066089;28;20028;-81
2023/04/18 10:56:02;;;;;;;5.47;3.00;;;;;;;16.68;50.00;93439.25;5065920;28;20020;-81
2023/04/18 10:58:31;;;;;;;7.88;3.13;;;;;;;16.73;49.30;93444.34;5065568;28;20048;-80
2023/04/18 11:00:56;;;;;;;8.80;3.22;;;;;;;16.68;49.42;93433.88;5065643;28;20328;-81
2023/04/18 11:03:32;;;;;;;5.50;3.38;;;;;;;16.64;49.69;93439.19;5065694;28;20103;-81
2023/04/18 11:06:01;;;;;;;16.02;5.35;;;;;;;16.64;50.67;93436.50;5064690;28;20337;-81
2023/04/18 11:08:27;;;;;;;7.30;2.95;;;;;;;16.84;49.53;93433.75;5065560;28;20096;-81
2023/04/18 11:10:57;;;;;;;12.27;3.45;;;;;;;16.90;49.80;93437.69;5065572;28;20024;-80
2023/04/18 11:13:22;;;;;;;13.52;3.58;;;;;;;16.86;48.33;93433.41;5065683;28;20085;-80
2023/04/18 11:15:48;;;;;;;10.40;2.92;;;;;;;16.82;49.06;93431.44;5065625;28;20021;-81
2023/04/18 11:18:13;;;;;;;7.20;3.85;;;;;;;16.82;48.92;93426.03;5065482;28;20024;-80
2023/04/18 11:20:46;;;;;;;4.68;2.78;;;;;;;16.70;49.57;93422.75;5065220;28;20020;-81
2023/04/18 11:23:17;;;;;;;5.22;2.47;;;;;;;16.72;49.58;93420.50;5065230;28;20025;-81
2023/04/18 11:25:43;;;;;;;4.93;2.92;;;;;;;16.84;49.05;93425.69;5065190;28;20261;-80
2023/04/18 11:28:12;;;;;;;5.65;2.80;;;;;;;16.87;48.17;93416.88;5065195;28;20024;-81
2023/04/18 11:30:39;;;;;;;4.57;2.90;;;;;;;16.80;47.68;93409.47;5064520;28;20024;-81
2023/04/18 11:33:12;;;;;;;6.57;2.90;;;;;;;16.75;48.17;93412.47;5065214;28;20191;-80
2023/04/18 11:35:42;;;;;;;7.70;3.30;;;;;;;16.98;47.91;93409.75;5065795;28;20179;-81
2023/04/18 11:38:11;;;;;;;7.68;3.22;;;;;;;17.16;47.82;93404.59;5065597;28;20101;-81
2023/04/18 11:40:36;;;;;;;7.75;2.83;;;;;;;17.35;45.99;93403.66;5065607;28;20021;-81
2023/04/18 11:43:03;;;;;;;6.03;3.22;;;;;;;17.60;46.87;93400.47;5065421;28;20024;-80